createdAt,value
2023-04-15T00:01:37.764Z,100871.28
2023-04-15T00:06:43.352Z,100861.78
2023-04-15T00:11:48.720Z,100868.75
2023-04-15T00:16:56.831Z,100886.47
2023-04-15T00:22:01.439Z,100908.56
2023-04-15T00:27:06.972Z,100918.34
2023-04-15T00:32:12.009Z,100918.25
2023-04-15T00:37:19.201Z,100963.50
2023-04-15T00:42:25.614Z,100932.19
2023-04-15T00:47:31.923Z,100942.84
2023-04-15T00:52:37.780Z,100959.81
2023-04-15T00:57:43.678Z,100969.72
2023-04-15T01:02:49.721Z,100989.72
2023-04-15T01:07:56.804Z,100983.44
2023-04-15T01:13:03.726Z,101021.88
2023-04-15T01:18:10.298Z,101059.81
2023-04-15T01:23:17.982Z,101043.53
2023-04-15T01:28:23.363Z,101054.13
2023-04-15T01:33:28.544Z,101049.34
2023-04-15T01:38:53.352Z,101106.47
2023-04-15T01:44:00.663Z,101071.25
2023-04-15T01:49:07.329Z,101080.97
2023-04-15T01:54:14.039Z,101079.13
2023-04-15T01:59:20.518Z,101089.09
2023-04-15T02:04:27.309Z,101123.19
2023-04-15T02:09:34.518Z,101114.47
2023-04-15T02:14:41.192Z,101142.94
2023-04-15T02:19:48.840Z,101150.47
2023-04-15T02:24:55.263Z,101176.44
2023-04-15T02:30:01.792Z,101180.94
2023-04-15T02:35:09.670Z,101195.69
2023-04-15T02:40:16.313Z,101186.28
2023-04-15T02:45:29.396Z,101226.53
2023-04-15T02:50:41.668Z,101255.00
2023-04-15T02:55:50.707Z,101250.28
2023-04-15T03:00:57.331Z,101262.44
2023-04-15T03:06:04.289Z,101282.66
2023-04-15T03:11:10.985Z,101297.28
2023-04-15T03:16:18.319Z,101283.53
2023-04-15T03:21:25.274Z,101292.06
2023-04-15T03:26:33.067Z,101300.78
2023-04-15T03:31:45.345Z,101297.97
2023-04-15T03:36:52.124Z,101318.81
2023-04-15T03:42:00.197Z,101315.16
2023-04-15T03:47:06.930Z,101332.00
2023-04-15T03:52:13.358Z,101346.19
2023-04-15T03:57:19.992Z,101339.94
2023-04-15T04:02:26.864Z,101370.09
2023-04-15T04:07:33.852Z,101374.84
2023-04-15T04:12:40.949Z,101371.09
2023-04-15T04:17:47.684Z,101382.47
2023-04-15T04:22:54.312Z,101382.69
2023-04-15T04:28:00.845Z,101396.72
2023-04-15T04:33:08.495Z,101393.38
2023-04-15T04:38:15.218Z,101402.41
2023-04-15T04:43:21.968Z,101409.88
2023-04-15T04:48:28.773Z,101432.88
2023-04-15T04:53:36.457Z,101445.16
2023-04-15T04:58:43.059Z,101424.44
2023-04-15T05:03:49.955Z,101434.38
2023-04-15T05:08:57.346Z,101450.50
2023-04-15T05:14:03.795Z,101480.81
2023-04-15T05:19:10.653Z,101466.06
2023-04-15T05:24:17.665Z,101469.06
2023-04-15T05:29:24.610Z,101504.03
2023-04-15T05:34:31.750Z,101481.97
2023-04-15T05:39:38.328Z,101493.97
2023-04-15T05:44:44.965Z,101493.44
2023-04-15T05:49:52.053Z,101504.28
2023-04-15T05:54:58.961Z,101519.69
2023-04-15T06:00:06.679Z,101559.69
2023-04-15T06:05:21.126Z,101539.03
2023-04-15T06:10:27.883Z,101562.84
2023-04-15T06:15:34.639Z,101549.88
2023-04-15T06:20:42.554Z,101552.31
2023-04-15T06:25:49.402Z,101557.69
2023-04-15T06:30:56.838Z,101572.75
2023-04-15T06:36:03.618Z,101578.34
2023-04-15T06:41:10.584Z,101583.59
2023-04-15T06:46:17.520Z,101589.41
2023-04-15T06:51:26.647Z,101611.59
2023-04-15T06:56:34.453Z,101589.25
2023-04-15T07:01:43.213Z,101593.34
2023-04-15T07:06:49.818Z,101599.34
2023-04-15T07:11:56.547Z,101617.06
2023-04-15T07:17:03.989Z,101595.28
2023-04-15T07:22:10.800Z,101625.34
2023-04-15T07:27:18.556Z,101610.84
2023-04-15T07:32:25.376Z,101620.19
2023-04-15T07:37:32.167Z,101625.34
2023-04-15T07:42:41.155Z,101643.72
2023-04-15T07:47:48.127Z,101641.63
2023-04-15T07:52:55.277Z,101640.53
2023-04-15T07:58:02.070Z,101614.06
2023-04-15T08:03:09.084Z,101650.97
2023-04-15T08:08:16.039Z,101646.41
2023-04-15T08:13:22.935Z,101656.50
2023-04-15T08:18:29.545Z,101688.72
2023-04-15T08:23:36.346Z,101677.31
2023-04-15T08:28:44.917Z,101690.44
2023-04-15T08:33:53.106Z,101673.25
2023-04-15T08:38:59.695Z,101656.59
2023-04-15T08:44:06.725Z,101666.00
2023-04-15T08:49:39.301Z,101686.44
2023-04-15T08:54:46.388Z,101682.00
2023-04-15T08:59:54.810Z,101715.41
2023-04-15T09:05:00.169Z,101704.16
2023-04-15T09:10:07.388Z,101676.78
2023-04-15T09:15:14.471Z,101689.56
2023-04-15T09:20:21.694Z,101699.75
2023-04-15T09:25:31.192Z,101710.50
2023-04-15T09:30:39.804Z,101727.72
2023-04-15T09:36:25.647Z,101711.94
2023-04-15T09:41:32.216Z,101739.19
2023-04-15T09:46:46.825Z,101742.88
2023-04-15T09:52:06.348Z,101738.69
2023-04-15T09:57:14.322Z,101731.44
2023-04-15T10:02:24.795Z,101787.13
2023-04-15T10:07:32.605Z,101756.59
2023-04-15T10:12:42.232Z,101781.38
2023-04-15T10:17:52.131Z,101770.59
2023-04-15T10:22:59.048Z,101749.34
2023-04-15T10:28:07.631Z,101775.56
2023-04-15T10:33:15.219Z,101758.97
2023-04-15T10:38:47.407Z,101776.03
2023-04-15T10:44:06.127Z,101768.50
2023-04-15T10:49:14.764Z,101759.66
2023-04-15T10:54:29.276Z,101779.00
2023-04-15T10:59:59.206Z,101797.84
2023-04-15T11:05:06.263Z,101792.56
2023-04-15T11:10:33.285Z,101813.81
2023-04-15T11:15:42.238Z,101790.50
2023-04-15T11:20:55.446Z,101821.03
2023-04-15T11:26:04.435Z,101811.97
2023-04-15T11:31:15.696Z,101804.44
2023-04-15T11:36:27.928Z,101832.78
2023-04-15T11:41:36.638Z,101809.50
2023-04-15T11:46:45.529Z,101813.78
2023-04-15T11:51:52.468Z,101802.53
2023-04-15T11:56:57.979Z,101826.63
2023-04-15T12:02:15.276Z,101832.69
2023-04-15T12:07:20.560Z,101822.22
2023-04-15T12:12:30.310Z,101830.69
2023-04-15T12:17:51.827Z,101841.19
2023-04-15T12:23:07.794Z,101875.69
2023-04-15T12:28:12.690Z,101865.56
2023-04-15T12:33:18.748Z,101880.75
2023-04-15T12:38:23.823Z,101876.66
2023-04-15T12:43:29.255Z,101874.47
2023-04-15T12:48:35.663Z,101887.56
2023-04-15T12:53:41.381Z,101893.06
2023-04-15T12:58:46.887Z,101893.19
2023-04-15T13:03:52.716Z,101916.69
2023-04-15T13:08:59.071Z,101920.84
2023-04-15T13:14:07.368Z,101928.25
2023-04-15T13:19:12.797Z,101929.94
2023-04-15T13:24:18.697Z,101930.03
2023-04-15T13:29:24.272Z,101944.69
2023-04-15T13:34:29.657Z,101957.91
2023-04-15T13:39:35.262Z,101951.19
2023-04-15T13:44:41.054Z,101969.00
2023-04-15T13:49:46.610Z,101981.91
2023-04-15T13:55:08.810Z,101989.47
2023-04-15T14:00:19.687Z,101983.78
2023-04-15T14:05:25.034Z,101988.72
2023-04-15T14:10:30.437Z,101990.66
2023-04-15T14:15:35.806Z,102004.56
2023-04-15T14:20:41.236Z,101978.78
2023-04-15T14:25:48.302Z,102011.88
2023-04-15T14:30:54.445Z,102010.22
2023-04-15T14:35:59.792Z,102011.81
2023-04-15T14:41:06.118Z,102015.53
2023-04-15T14:46:12.329Z,102022.47
2023-04-15T14:51:18.137Z,102023.94
2023-04-15T14:56:23.681Z,102033.59
2023-04-15T15:01:30.330Z,102050.72
2023-04-15T15:06:36.264Z,102035.72
2023-04-15T15:11:41.893Z,102036.84
2023-04-15T15:16:47.594Z,102043.47
2023-04-15T15:21:53.042Z,102041.53
2023-04-15T15:26:58.702Z,102047.75
2023-04-15T15:32:04.244Z,102054.75
2023-04-15T15:37:09.786Z,102059.34
2023-04-15T15:42:15.445Z,102066.47
2023-04-15T15:47:22.892Z,102080.22
2023-04-15T15:52:28.737Z,102082.97
2023-04-15T15:57:34.201Z,102089.53
2023-04-15T16:03:05.085Z,102098.03
2023-04-15T16:08:06.371Z,102108.03
2023-04-15T16:13:12.014Z,102109.69
2023-04-15T16:18:18.082Z,102122.13
2023-04-15T16:23:24.272Z,102135.41
2023-04-15T16:28:29.749Z,102144.44
2023-04-15T16:33:35.396Z,102153.31
2023-04-15T16:38:40.864Z,102163.88
2023-04-15T16:43:46.659Z,102166.44
2023-04-15T16:48:52.297Z,102170.47
2023-04-15T16:53:57.760Z,102172.09
2023-04-15T16:59:03.432Z,102187.25
2023-04-15T17:04:09.397Z,102198.91
2023-04-15T17:09:14.949Z,102206.03
2023-04-15T17:14:20.397Z,102198.47
2023-04-15T17:19:28.429Z,102215.31
2023-04-15T17:24:46.052Z,102228.84
2023-04-15T17:29:54.155Z,102226.09
2023-04-15T17:35:20.663Z,102233.91
2023-04-15T17:40:47.262Z,102238.53
2023-04-15T17:46:14.336Z,102240.75
2023-04-15T17:51:41.247Z,102240.00
2023-04-15T17:57:08.119Z,102242.81
2023-04-15T18:02:36.923Z,102243.75
2023-04-15T18:08:04.423Z,102246.44
2023-04-15T18:13:30.654Z,102249.41
2023-04-15T18:18:57.121Z,102251.06
2023-04-15T18:24:02.442Z,102252.41
2023-04-15T18:29:08.250Z,102258.84
2023-04-15T18:34:14.133Z,102253.41
2023-04-15T18:39:18.944Z,102255.97
2023-04-15T18:44:24.631Z,102260.19
2023-04-15T18:49:30.858Z,102267.94
2023-04-15T18:54:36.935Z,102267.56
2023-04-15T18:59:42.308Z,102270.84
2023-04-15T19:04:47.986Z,102270.34
2023-04-15T19:09:53.993Z,102269.84
2023-04-15T19:14:59.599Z,102272.00
2023-04-15T19:20:05.571Z,102275.53
2023-04-15T19:25:11.037Z,102283.19
2023-04-15T19:30:16.969Z,102275.72
2023-04-15T19:35:22.003Z,102288.94
2023-04-15T19:40:27.409Z,102294.41
2023-04-15T19:45:32.786Z,102298.16
2023-04-15T19:50:38.355Z,102302.41
2023-04-15T19:55:44.177Z,102308.53
2023-04-15T20:00:49.487Z,102314.25
2023-04-15T20:05:54.796Z,102315.38
2023-04-15T20:11:01.718Z,102322.88
2023-04-15T20:16:08.312Z,102321.97
2023-04-15T20:21:13.715Z,102320.69
2023-04-15T20:26:20.165Z,102338.84
2023-04-15T20:31:25.323Z,102336.31
2023-04-15T20:36:32.233Z,102351.09
2023-04-15T20:41:37.772Z,102349.44
2023-04-15T20:46:43.290Z,102360.72
2023-04-15T20:51:49.458Z,102354.41
2023-04-15T20:56:54.891Z,102363.91
2023-04-15T21:02:00.256Z,102352.56
2023-04-15T21:07:06.102Z,102376.53
2023-04-15T21:12:12.157Z,102373.06
2023-04-15T21:17:36.991Z,102378.66
2023-04-15T21:22:43.082Z,102377.81
2023-04-15T21:27:48.381Z,102400.75
2023-04-15T21:32:53.961Z,102393.59
2023-04-15T21:37:59.301Z,102396.69
2023-04-15T21:43:04.778Z,102396.19
2023-04-15T21:48:10.186Z,102409.59
2023-04-15T21:53:15.541Z,102403.69
2023-04-15T21:58:20.909Z,102407.97
2023-04-15T22:03:26.371Z,102407.97
2023-04-15T22:08:41.336Z,102415.03
2023-04-15T22:13:52.626Z,102414.38
2023-04-15T22:18:58.253Z,102422.63
2023-04-15T22:24:32.237Z,102425.03
2023-04-15T22:29:30.605Z,102437.72
2023-04-15T22:34:36.014Z,102437.22
2023-04-15T22:39:41.624Z,102424.81
2023-04-15T22:44:46.678Z,102436.69
2023-04-15T22:49:52.064Z,102432.19
2023-04-15T22:54:57.802Z,102431.38
2023-04-15T23:00:03.352Z,102440.28
2023-04-15T23:05:12.446Z,102445.59
2023-04-15T23:10:21.469Z,102448.78
2023-04-15T23:15:26.625Z,102458.41
2023-04-15T23:20:32.225Z,102462.28
2023-04-15T23:25:37.794Z,102465.00
2023-04-15T23:30:43.372Z,102473.22
2023-04-15T23:35:48.702Z,102480.84
2023-04-15T23:40:54.208Z,102479.78
2023-04-15T23:45:59.574Z,102490.72
2023-04-15T23:51:06.169Z,102488.59
2023-04-15T23:56:11.614Z,102499.31
